Time;durP1;ratioP1;P1;durP2;ratioP2;P2;SDS_P1;SDS_P2;PMS_P1;PMS_P2;Temp;Humidity;BMP_temperature;BMP_pressure;BME280_temperature;BME280_humidity;BME280_pressure;Samples;Min_cycle;Max_cycle;Signal;HPM_P1;HPM_P2
2022/03/15 00:00:27;;;;;;;;;;;22.50;24.40;;;;;;4932737;29;19934;-68
2022/03/15 00:02:54;;;;;;;;;;;22.50;24.40;;;;;;4932610;29;19927;-68
2022/03/15 00:05:21;;;;;;;;;;;22.50;24.40;;;;;;4932793;29;20388;-68
2022/03/15 00:07:49;;;;;;;;;;;22.50;24.40;;;;;;4932475;29;19993;-68
2022/03/15 00:10:18;;;;;;;;;;;22.50;24.40;;;;;;4932618;29;19986;-68
2022/03/15 00:12:46;;;;;;;;;;;22.50;24.40;;;;;;4932839;29;20021;-68
2022/03/15 00:15:13;;;;;;;;;;;22.50;24.50;;;;;;4932824;29;20009;-68
2022/03/15 00:17:44;;;;;;;;;;;22.50;24.50;;;;;;4932554;29;20795;-68
2022/03/15 00:20:14;;;;;;;;;;;22.50;24.50;;;;;;4932711;29;20044;-68
2022/03/15 00:22:42;;;;;;;;;;;22.50;24.50;;;;;;4932299;29;19927;-68
2022/03/15 00:25:10;;;;;;;;;;;22.50;24.50;;;;;;4932003;29;20013;-68
2022/03/15 00:27:37;;;;;;;;;;;22.50;24.50;;;;;;4932169;29;19982;-68
2022/03/15 00:30:06;;;;;;;;;;;22.50;24.60;;;;;;4932116;29;19975;-68
2022/03/15 00:32:34;;;;;;;;;;;22.40;24.50;;;;;;4932114;29;20001;-68
2022/03/15 00:35:01;;;;;;;;;;;22.50;24.60;;;;;;4932323;29;20788;-68
2022/03/15 00:37:29;;;;;;;;;;;22.40;24.60;;;;;;4931843;29;20574;-68
2022/03/15 00:39:56;;;;;;;;;;;22.50;24.60;;;;;;4931562;29;20396;-68
2022/03/15 00:42:23;;;;;;;;;;;22.50;24.70;;;;;;4931853;29;19933;-68
2022/03/15 00:44:50;;;;;;;;;;;22.50;24.70;;;;;;4931976;29;19930;-68
2022/03/15 00:47:17;;;;;;;;;;;22.40;24.60;;;;;;4931760;29;19974;-68
2022/03/15 00:49:44;;;;;;;;;;;22.40;24.60;;;;;;4931868;29;19927;-68
2022/03/15 00:52:11;;;;;;;;;;;22.40;24.60;;;;;;4931767;29;20554;-67
2022/03/15 00:54:38;;;;;;;;;;;22.40;24.60;;;;;;4931746;29;19982;-68
2022/03/15 00:57:06;;;;;;;;;;;22.40;24.60;;;;;;4931999;29;20018;-68
2022/03/15 00:59:33;;;;;;;;;;;22.40;24.70;;;;;;4931769;29;19931;-68
2022/03/15 01:02:00;;;;;;;;;;;22.40;24.70;;;;;;4931898;29;19927;-68
2022/03/15 01:04:27;;;;;;;;;;;22.40;24.70;;;;;;4931897;29;20021;-68
2022/03/15 01:06:54;;;;;;;;;;;22.40;24.70;;;;;;4931344;29;19977;-68
2022/03/15 01:09:21;;;;;;;;;;;22.40;24.70;;;;;;4931428;29;19973;-68
2022/03/15 01:11:49;;;;;;;;;;;22.40;24.70;;;;;;4931545;29;19930;-68
2022/03/15 01:14:16;;;;;;;;;;;22.40;24.70;;;;;;4931660;29;20385;-68
2022/03/15 01:16:43;;;;;;;;;;;22.40;24.70;;;;;;4931378;29;19927;-68
2022/03/15 01:19:10;;;;;;;;;;;22.40;24.70;;;;;;4931922;29;20019;-68
2022/03/15 01:21:39;;;;;;;;;;;22.40;24.70;;;;;;4931229;29;20033;-68
2022/03/15 01:24:07;;;;;;;;;;;22.40;24.70;;;;;;4931593;29;19931;-67
2022/03/15 01:26:34;;;;;;;;;;;22.30;24.70;;;;;;4929620;29;19930;-68
2022/03/15 01:29:01;;;;;;;;;;;22.40;24.70;;;;;;4931352;29;20022;-68
2022/03/15 01:31:28;;;;;;;;;;;22.30;24.70;;;;;;4931336;29;19927;-67
2022/03/15 01:33:56;;;;;;;;;;;22.40;24.70;;;;;;4931376;29;20010;-68
2022/03/15 01:36:23;;;;;;;;;;;22.30;24.70;;;;;;4931016;29;20017;-69
2022/03/15 01:38:53;;;;;;;;;;;22.40;24.70;;;;;;4930805;29;20009;-68
2022/03/15 01:41:21;;;;;;;;;;;22.30;24.70;;;;;;4930760;29;20444;-67
2022/03/15 01:43:54;;;;;;;;;;;22.40;24.70;;;;;;4930839;29;19927;-67
2022/03/15 01:46:21;;;;;;;;;;;22.30;24.70;;;;;;4931337;29;19927;-67
2022/03/15 01:48:48;;;;;;;;;;;22.30;24.80;;;;;;4931145;29;19973;-68
2022/03/15 01:51:15;;;;;;;;;;;22.30;24.80;;;;;;4930783;29;19930;-68
2022/03/15 01:53:42;;;;;;;;;;;22.30;24.80;;;;;;4930826;29;19935;-67
2022/03/15 01:56:10;;;;;;;;;;;22.30;24.80;;;;;;4930904;29;19934;-67
2022/03/15 01:58:37;;;;;;;;;;;22.30;24.80;;;;;;4930812;29;19985;-67
2022/03/15 02:01:04;;;;;;;;;;;22.30;24.90;;;;;;4931053;29;19927;-68
2022/03/15 02:03:32;;;;;;;;;;;22.30;24.90;;;;;;4930766;29;20396;-68
2022/03/15 02:06:01;;;;;;;;;;;22.30;24.80;;;;;;4930888;29;19938;-68
2022/03/15 02:08:28;;;;;;;;;;;22.30;24.90;;;;;;4930614;29;20022;-68
2022/03/15 02:10:55;;;;;;;;;;;22.30;24.90;;;;;;4930912;29;20018;-68
2022/03/15 02:13:23;;;;;;;;;;;22.20;24.80;;;;;;4930858;29;19970;-68
2022/03/15 02:15:50;;;;;;;;;;;22.30;24.90;;;;;;4930442;29;19931;-68
2022/03/15 02:18:19;;;;;;;;;;;22.20;24.90;;;;;;4930640;29;20026;-68
2022/03/15 02:20:47;;;;;;;;;;;22.30;24.90;;;;;;4930837;29;20033;-67
2022/03/15 02:23:14;;;;;;;;;;;22.20;24.90;;;;;;4930607;29;20359;-67
2022/03/15 02:25:41;;;;;;;;;;;22.20;24.90;;;;;;4930576;29;19935;-68
2022/03/15 02:28:08;;;;;;;;;;;22.20;24.90;;;;;;4930878;29;20300;-67
2022/03/15 02:30:35;;;;;;;;;;;22.20;24.90;;;;;;4930554;29;19927;-67
2022/03/15 02:33:03;;;;;;;;;;;22.20;24.90;;;;;;4930209;29;19927;-67
2022/03/15 02:35:30;;;;;;;;;;;22.20;24.90;;;;;;4930575;29;19969;-67
2022/03/15 02:37:57;;;;;;;;;;;22.20;24.90;;;;;;4930742;29;19986;-67
2022/03/15 02:40:24;;;;;;;;;;;22.20;24.90;;;;;;4930456;29;19927;-67
2022/03/15 02:42:51;;;;;;;;;;;22.20;24.90;;;;;;4930328;29;19970;-67
2022/03/15 02:45:19;;;;;;;;;;;22.20;24.90;;;;;;4930825;29;19926;-67
2022/03/15 02:47:47;;;;;;;;;;;22.20;24.90;;;;;;4929216;29;19976;-67
2022/03/15 02:50:14;;;;;;;;;;;22.20;24.90;;;;;;4930483;29;19944;-67
2022/03/15 02:52:41;;;;;;;;;;;22.20;24.90;;;;;;4930433;29;20017;-67
2022/03/15 02:55:08;;;;;;;;;;;22.20;24.90;;;;;;4930660;29;19927;-67
2022/03/15 02:57:40;;;;;;;;;;;22.20;24.90;;;;;;4930115;29;19930;-67
2022/03/15 03:00:07;;;;;;;;;;;22.20;24.90;;;;;;4930336;29;19937;-68
2022/03/15 03:02:35;;;;;;;;;;;22.20;24.90;;;;;;4931961;29;20419;-67
2022/03/15 03:05:03;;;;;;;;;;;22.20;24.90;;;;;;4933749;29;19970;-68
2022/03/15 03:07:33;;;;;;;;;;;22.20;25.00;;;;;;4933516;29;20013;-68
2022/03/15 03:10:00;;;;;;;;;;;22.20;25.00;;;;;;4933913;29;19926;-67
2022/03/15 03:12:30;;;;;;;;;;;22.20;25.00;;;;;;4933610;29;19930;-67
2022/03/15 03:15:01;;;;;;;;;;;22.20;25.00;;;;;;4933549;29;20038;-68
2022/03/15 03:17:28;;;;;;;;;;;22.20;25.00;;;;;;4933607;29;20380;-68
2022/03/15 03:19:56;;;;;;;;;;;22.20;25.00;;;;;;4933912;29;19928;-67
2022/03/15 03:22:22;;;;;;;;;;;22.20;25.00;;;;;;4933567;29;19927;-67
2022/03/15 03:24:50;;;;;;;;;;;22.20;25.00;;;;;;4933393;29;20607;-68
2022/03/15 03:27:17;;;;;;;;;;;22.20;25.00;;;;;;4933429;29;19970;-68
2022/03/15 03:29:45;;;;;;;;;;;22.20;25.00;;;;;;4933203;29;20423;-67
2022/03/15 03:32:13;;;;;;;;;;;22.20;25.10;;;;;;4933163;29;19926;-68
2022/03/15 03:34:40;;;;;;;;;;;22.10;25.00;;;;;;4933512;29;19965;-68
2022/03/15 03:37:07;;;;;;;;;;;22.10;25.00;;;;;;4933521;29;19933;-67
2022/03/15 03:39:34;;;;;;;;;;;22.10;25.00;;;;;;4933180;29;19958;-68
2022/03/15 03:42:01;;;;;;;;;;;22.10;25.00;;;;;;4933360;29;19962;-67
2022/03/15 03:44:28;;;;;;;;;;;22.10;25.10;;;;;;4933297;29;20356;-67
2022/03/15 03:46:55;;;;;;;;;;;22.10;25.10;;;;;;4933168;29;20432;-67
2022/03/15 03:49:22;;;;;;;;;;;22.10;25.10;;;;;;4933064;29;19935;-67
2022/03/15 03:51:50;;;;;;;;;;;22.10;25.10;;;;;;4932899;29;19995;-67
2022/03/15 03:54:17;;;;;;;;;;;22.10;25.10;;;;;;4931692;29;19935;-67
2022/03/15 03:56:44;;;;;;;;;;;22.10;25.10;;;;;;4932852;29;20005;-67
2022/03/15 03:59:11;;;;;;;;;;;22.10;25.10;;;;;;4933119;29;19958;-67
2022/03/15 04:01:40;;;;;;;;;;;22.10;25.10;;;;;;4933008;29;19982;-68
2022/03/15 04:04:07;;;;;;;;;;;22.10;25.10;;;;;;4932939;29;19938;-68
2022/03/15 04:06:35;;;;;;;;;;;22.10;25.10;;;;;;4932966;29;19974;-67
2022/03/15 04:09:04;;;;;;;;;;;22.10;25.10;;;;;;4932882;29;19926;-67
2022/03/15 04:11:31;;;;;;;;;;;22.10;25.10;;;;;;4932561;29;19930;-67
2022/03/15 04:13:59;;;;;;;;;;;22.10;25.10;;;;;;4931295;29;19982;-67
2022/03/15 04:16:27;;;;;;;;;;;22.10;25.10;;;;;;4932883;29;19974;-67
2022/03/15 04:18:54;;;;;;;;;;;22.10;25.10;;;;;;4932575;29;19933;-67
2022/03/15 04:21:24;;;;;;;;;;;22.10;25.10;;;;;;4932460;29;20348;-67
2022/03/15 04:23:53;;;;;;;;;;;22.10;25.10;;;;;;4932922;29;19933;-67
2022/03/15 04:26:21;;;;;;;;;;;22.10;25.10;;;;;;4932868;29;19927;-67
2022/03/15 04:28:49;;;;;;;;;;;22.10;25.20;;;;;;4932254;29;20119;-67
2022/03/15 04:31:16;;;;;;;;;;;22.10;25.20;;;;;;4932159;29;19962;-67
2022/03/15 04:33:43;;;;;;;;;;;22.10;25.20;;;;;;4932407;29;20280;-67
2022/03/15 04:36:10;;;;;;;;;;;22.10;25.20;;;;;;4932406;29;19926;-67
2022/03/15 04:38:38;;;;;;;;;;;22.10;25.20;;;;;;4931847;29;19970;-67
2022/03/15 04:41:05;;;;;;;;;;;22.10;25.20;;;;;;4932030;29;19969;-67
2022/03/15 04:43:32;;;;;;;;;;;22.10;25.20;;;;;;4931980;29;19962;-67
2022/03/15 04:46:00;;;;;;;;;;;22.10;25.20;;;;;;4932196;29;20065;-67
2022/03/15 04:48:32;;;;;;;;;;;22.10;25.20;;;;;;4931884;29;19957;-67
2022/03/15 04:50:59;;;;;;;;;;;22.00;25.20;;;;;;4932208;29;19926;-67
2022/03/15 04:53:26;;;;;;;;;;;22.10;25.20;;;;;;4931901;29;19966;-67
2022/03/15 04:55:53;;;;;;;;;;;22.00;25.20;;;;;;4931538;29;19973;-67
2022/03/15 04:58:20;;;;;;;;;;;22.00;25.20;;;;;;4931955;29;20332;-67
2022/03/15 05:00:47;;;;;;;;;;;22.00;25.20;;;;;;4931876;29;19934;-67
2022/03/15 05:03:18;;;;;;;;;;;22.00;25.20;;;;;;4931335;29;19927;-67
2022/03/15 05:05:45;;;;;;;;;;;22.00;25.20;;;;;;4932037;29;19977;-66
2022/03/15 05:08:12;;;;;;;;;;;22.00;25.20;;;;;;4931726;29;19955;-67
2022/03/15 05:13:28;;;;;;;;;;;22.00;25.20;;;;;;4931901;29;19970;-67
2022/03/15 05:15:55;;;;;;;;;;;22.00;25.20;;;;;;4931499;29;19933;-67
2022/03/15 05:18:23;;;;;;;;;;;22.00;25.20;;;;;;4931046;29;20392;-67
2022/03/15 05:20:50;;;;;;;;;;;22.10;25.20;;;;;;4931428;29;20033;-67
2022/03/15 05:23:17;;;;;;;;;;;22.10;25.20;;;;;;4931650;29;20376;-67
2022/03/15 05:25:45;;;;;;;;;;;22.10;25.20;;;;;;4931062;29;19970;-67
2022/03/15 05:28:12;;;;;;;;;;;22.10;25.20;;;;;;4931143;29;19978;-67
2022/03/15 05:30:39;;;;;;;;;;;22.10;25.20;;;;;;4931285;29;19962;-67
2022/03/15 05:33:06;;;;;;;;;;;22.10;25.20;;;;;;4930130;29;19927;-67
2022/03/15 05:35:33;;;;;;;;;;;22.10;25.20;;;;;;4931101;29;19931;-67
2022/03/15 05:38:00;;;;;;;;;;;22.10;25.20;;;;;;4931042;29;19926;-67
2022/03/15 05:40:27;;;;;;;;;;;22.10;25.20;;;;;;4931062;29;19997;-67
2022/03/15 05:42:54;;;;;;;;;;;22.10;25.10;;;;;;4931234;29;20316;-67
2022/03/15 05:45:22;;;;;;;;;;;22.20;25.20;;;;;;4931096;29;19938;-67
2022/03/15 05:47:49;;;;;;;;;;;22.10;25.10;;;;;;4930913;29;19937;-67
2022/03/15 05:50:17;;;;;;;;;;;22.20;25.20;;;;;;4930938;29;19926;-67
2022/03/15 05:52:43;;;;;;;;;;;22.10;25.10;;;;;;4931094;29;19958;-67
2022/03/15 05:55:11;;;;;;;;;;;22.20;25.20;;;;;;4931004;29;19974;-67
2022/03/15 05:57:38;;;;;;;;;;;22.20;25.10;;;;;;4930851;29;20011;-67
2022/03/15 06:00:05;;;;;;;;;;;22.20;25.10;;;;;;4930980;29;20013;-71
2022/03/15 06:02:33;;;;;;;;;;;22.20;25.10;;;;;;4930903;29;20014;-67
2022/03/15 06:05:01;;;;;;;;;;;22.20;25.10;;;;;;4930964;29;19934;-67
2022/03/15 06:07:28;;;;;;;;;;;22.20;25.10;;;;;;4930459;29;19970;-67
2022/03/15 06:09:57;;;;;;;;;;;22.20;25.10;;;;;;4930724;29;19982;-67
2022/03/15 06:12:24;;;;;;;;;;;22.20;25.00;;;;;;4931055;29;20361;-67
2022/03/15 06:14:52;;;;;;;;;;;22.20;25.00;;;;;;4930921;29;20351;-67
2022/03/15 06:17:19;;;;;;;;;;;22.20;24.90;;;;;;4929706;29;19927;-67
2022/03/15 06:19:46;;;;;;;;;;;22.20;24.90;;;;;;4931097;29;19962;-67
2022/03/15 06:22:13;;;;;;;;;;;22.20;24.80;;;;;;4930563;29;20105;-67
2022/03/15 06:24:40;;;;;;;;;;;22.30;24.70;;;;;;4930459;29;19983;-66
2022/03/15 06:27:07;;;;;;;;;;;22.30;24.60;;;;;;4930783;29;19927;-67
2022/03/15 06:29:35;;;;;;;;;;;22.40;24.60;;;;;;4930553;29;19958;-67
2022/03/15 06:32:02;;;;;;;;;;;22.50;24.50;;;;;;4930260;29;20440;-67
2022/03/15 06:34:48;;;;;;;;;;;22.50;24.40;;;;;;4930412;29;20278;-67
2022/03/15 06:37:16;;;;;;;;;;;22.60;24.30;;;;;;4931840;29;19927;-68
2022/03/15 06:39:44;;;;;;;;;;;22.70;24.30;;;;;;4934422;29;19974;-67
2022/03/15 06:42:11;;;;;;;;;;;22.80;24.30;;;;;;4934386;29;19930;-67
2022/03/15 06:44:41;;;;;;;;;;;22.80;24.20;;;;;;4934423;29;19931;-67
2022/03/15 06:47:08;;;;;;;;;;;22.90;24.20;;;;;;4934087;29;20022;-67
2022/03/15 06:49:36;;;;;;;;;;;23.00;24.10;;;;;;4934084;29;19926;-67
2022/03/15 06:52:03;;;;;;;;;;;23.00;24.00;;;;;;4934394;29;19962;-67
2022/03/15 06:54:30;;;;;;;;;;;23.10;24.00;;;;;;4933750;29;20388;-67
2022/03/15 06:56:57;;;;;;;;;;;23.30;23.90;;;;;;4934037;29;19959;-68
2022/03/15 06:59:24;;;;;;;;;;;23.30;23.90;;;;;;4933763;29;19927;-68
2022/03/15 07:01:58;;;;;;;;;;;23.40;23.80;;;;;;4933834;29;19931;-68
2022/03/15 07:04:26;;;;;;;;;;;23.50;23.70;;;;;;4933726;29;19974;-68
2022/03/15 07:06:53;;;;;;;;;;;23.60;23.70;;;;;;4934296;29;20288;-68
2022/03/15 07:09:20;;;;;;;;;;;23.70;23.70;;;;;;4933575;29;19974;-67
2022/03/15 07:11:47;;;;;;;;;;;23.80;23.60;;;;;;4933840;29;20030;-67
2022/03/15 07:14:14;;;;;;;;;;;23.90;23.50;;;;;;4933404;29;20355;-67
2022/03/15 07:16:41;;;;;;;;;;;24.00;23.50;;;;;;4934129;29;20340;-67
2022/03/15 07:19:08;;;;;;;;;;;24.00;23.40;;;;;;4933643;29;19964;-67
2022/03/15 07:21:35;;;;;;;;;;;24.10;23.40;;;;;;4933648;29;19976;-68
2022/03/15 07:24:02;;;;;;;;;;;24.20;23.30;;;;;;4933486;29;19977;-67
2022/03/15 07:26:29;;;;;;;;;;;24.20;23.20;;;;;;4933348;29;19974;-68
2022/03/15 07:28:57;;;;;;;;;;;24.30;23.10;;;;;;4933686;29;19974;-68
2022/03/15 07:31:24;;;;;;;;;;;24.40;23.10;;;;;;4932940;29;20030;-67
2022/03/15 07:33:51;;;;;;;;;;;24.50;23.10;;;;;;4933047;29;20002;-68
2022/03/15 07:36:19;;;;;;;;;;;24.50;23.00;;;;;;4933345;29;19937;-67
2022/03/15 07:38:46;;;;;;;;;;;24.50;23.00;;;;;;4933044;29;19927;-67
2022/03/15 07:41:13;;;;;;;;;;;24.60;22.90;;;;;;4933202;29;20006;-68
2022/03/15 07:43:40;;;;;;;;;;;24.70;22.90;;;;;;4933441;29;20292;-68
2022/03/15 07:46:07;;;;;;;;;;;24.70;22.90;;;;;;4933184;29;19987;-67
2022/03/15 07:48:35;;;;;;;;;;;24.80;22.80;;;;;;4932835;29;19927;-68
2022/03/15 07:51:02;;;;;;;;;;;24.80;22.80;;;;;;4933278;29;20018;-68
2022/03/15 07:53:29;;;;;;;;;;;24.90;22.80;;;;;;4932881;29;19973;-68
2022/03/15 07:55:56;;;;;;;;;;;24.90;22.70;;;;;;4931875;29;19985;-68
2022/03/15 07:58:23;;;;;;;;;;;24.90;22.70;;;;;;4933176;29;20009;-68
2022/03/15 08:00:54;;;;;;;;;;;25.00;22.70;;;;;;4932962;29;19981;-68
2022/03/15 08:03:22;;;;;;;;;;;25.00;22.70;;;;;;4933383;29;19978;-68
2022/03/15 08:05:49;;;;;;;;;;;25.10;22.70;;;;;;4932964;29;19930;-68
2022/03/15 08:08:16;;;;;;;;;;;25.10;22.60;;;;;;4932637;29;20013;-67
2022/03/15 08:10:43;;;;;;;;;;;25.10;22.60;;;;;;4932497;29;19966;-68
2022/03/15 08:13:11;;;;;;;;;;;25.20;22.60;;;;;;4932821;29;21869;-68
2022/03/15 08:15:38;;;;;;;;;;;25.30;22.60;;;;;;4932718;29;19969;-68
2022/03/15 08:18:06;;;;;;;;;;;25.30;22.60;;;;;;4932885;29;19966;-68
2022/03/15 08:20:33;;;;;;;;;;;25.40;22.60;;;;;;4932375;29;19926;-68
2022/03/15 08:23:02;;;;;;;;;;;25.40;22.60;;;;;;4931714;29;21315;-68
2022/03/15 08:25:30;;;;;;;;;;;25.40;22.50;;;;;;4932362;29;19933;-68
2022/03/15 08:27:58;;;;;;;;;;;25.50;22.60;;;;;;4932161;29;19927;-68
2022/03/15 08:30:25;;;;;;;;;;;25.50;22.60;;;;;;4932632;29;19966;-68
2022/03/15 08:32:53;;;;;;;;;;;25.60;22.60;;;;;;4932641;29;19989;-68
2022/03/15 08:35:21;;;;;;;;;;;25.70;22.60;;;;;;4932152;29;20014;-69
2022/03/15 08:37:50;;;;;;;;;;;25.70;22.60;;;;;;4932269;29;19978;-67
2022/03/15 08:40:19;;;;;;;;;;;25.70;22.60;;;;;;4932312;29;20333;-68
2022/03/15 08:42:46;;;;;;;;;;;25.80;22.60;;;;;;4932098;29;20025;-67
2022/03/15 08:45:13;;;;;;;;;;;25.80;22.60;;;;;;4932007;29;19982;-68
2022/03/15 08:47:41;;;;;;;;;;;25.80;22.50;;;;;;4932507;29;19927;-68
2022/03/15 08:50:08;;;;;;;;;;;25.90;22.60;;;;;;4931615;29;19927;-68
2022/03/15 08:52:35;;;;;;;;;;;25.90;22.50;;;;;;4931817;29;20021;-68
2022/03/15 08:55:03;;;;;;;;;;;25.90;22.50;;;;;;4931602;29;20027;-68
2022/03/15 08:57:30;;;;;;;;;;;26.00;22.50;;;;;;4932018;29;19926;-68
2022/03/15 08:59:58;;;;;;;;;;;26.00;22.40;;;;;;4931157;29;19969;-68
2022/03/15 09:02:26;;;;;;;;;;;26.00;22.50;;;;;;4930690;29;19970;-68
2022/03/15 09:04:53;;;;;;;;;;;26.10;22.50;;;;;;4931645;29;19946;-68
2022/03/15 09:07:20;;;;;;;;;;;26.10;22.40;;;;;;4931801;29;20432;-68
2022/03/15 09:09:47;;;;;;;;;;;26.10;22.40;;;;;;4931600;29;19927;-68
2022/03/15 09:12:16;;;;;;;;;;;26.20;22.40;;;;;;4931347;29;19927;-67
2022/03/15 09:14:43;;;;;;;;;;;26.20;22.40;;;;;;4931439;29;20009;-68
2022/03/15 09:17:10;;;;;;;;;;;26.30;22.40;;;;;;4931550;29;20005;-68
2022/03/15 09:19:40;;;;;;;;;;;26.30;22.40;;;;;;4931415;29;19933;-70
2022/03/15 09:22:07;;;;;;;;;;;26.30;22.40;;;;;;4931471;29;20372;-67
2022/03/15 09:24:36;;;;;;;;;;;26.40;22.40;;;;;;4931203;29;20452;-68
2022/03/15 09:27:04;;;;;;;;;;;26.40;22.40;;;;;;4931503;29;19954;-68
2022/03/15 09:29:31;;;;;;;;;;;26.40;22.40;;;;;;4931012;29;19981;-68
2022/03/15 09:35:35;;;;;;;;;;;26.40;22.40;;;;;;4916742;29;19967;-68
2022/03/15 09:38:02;;;;;;;;;;;26.50;22.50;;;;;;4916652;29;20021;-68
2022/03/15 09:40:30;;;;;;;;;;;26.50;22.40;;;;;;4916660;29;19931;-68
2022/03/15 09:42:58;;;;;;;;;;;26.50;22.40;;;;;;4916652;29;19974;-68
2022/03/15 09:45:28;;;;;;;;;;;26.50;22.40;;;;;;4915433;29;19928;-68
2022/03/15 09:47:56;;;;;;;;;;;26.60;22.40;;;;;;4916636;29;19931;-67
2022/03/15 09:50:24;;;;;;;;;;;26.50;22.40;;;;;;4915560;29;19982;-67
2022/03/15 09:52:53;;;;;;;;;;;26.60;22.40;;;;;;4916827;29;19973;-67
2022/03/15 09:55:21;;;;;;;;;;;26.60;22.40;;;;;;4916398;29;19982;-68
2022/03/15 09:57:48;;;;;;;;;;;26.60;22.40;;;;;;4916462;29;20392;-68
2022/03/15 10:00:16;;;;;;;;;;;26.60;22.40;;;;;;4916593;29;20341;-67
2022/03/15 10:02:44;;;;;;;;;;;26.60;22.30;;;;;;4916632;29;19966;-67
2022/03/15 10:05:11;;;;;;;;;;;26.60;22.40;;;;;;4916621;29;19955;-67
2022/03/15 10:07:39;;;;;;;;;;;26.70;22.40;;;;;;4916731;29;19927;-67
2022/03/15 10:10:07;;;;;;;;;;;26.70;22.40;;;;;;4916309;29;19974;-68
2022/03/15 10:12:34;;;;;;;;;;;26.70;22.40;;;;;;4920299;29;19934;-67
2022/03/15 10:15:13;;;;;;;;;;;26.70;22.40;;;;;;4920232;29;20439;-68
2022/03/15 10:17:44;;;;;;;;;;;26.70;22.40;;;;;;4920525;29;19937;-68
2022/03/15 10:20:13;;;;;;;;;;;26.80;22.40;;;;;;4920435;29;19927;-68
2022/03/15 10:22:49;;;;;;;;;;;26.80;22.40;;;;;;4920224;29;19931;-68
2022/03/15 10:25:16;;;;;;;;;;;26.80;22.30;;;;;;4918847;29;20025;-67
2022/03/15 10:27:48;;;;;;;;;;;26.80;22.30;;;;;;4920142;29;19933;-67
2022/03/15 10:30:17;;;;;;;;;;;26.80;22.30;;;;;;4919943;29;20469;-67
2022/03/15 10:32:43;;;;;;;;;;;26.80;22.30;;;;;;4918752;29;19934;-67
2022/03/15 10:35:10;;;;;;;;;;;26.80;22.20;;;;;;4920141;29;19963;-67
2022/03/15 10:37:40;;;;;;;;;;;26.90;22.30;;;;;;4919932;29;19978;-67
2022/03/15 10:40:07;;;;;;;;;;;26.90;22.30;;;;;;4919991;29;20273;-67
2022/03/15 10:42:42;;;;;;;;;;;26.80;22.30;;;;;;4920117;29;19927;-67
2022/03/15 10:45:16;;;;;;;;;;;26.90;22.30;;;;;;4920048;29;20021;-68
2022/03/15 10:47:50;;;;;;;;;;;26.80;22.30;;;;;;4919647;29;19927;-67
2022/03/15 10:50:18;;;;;;;;;;;26.90;22.30;;;;;;4919753;29;20005;-66
2022/03/15 10:52:45;;;;;;;;;;;26.90;22.30;;;;;;4920218;29;19994;-67
2022/03/15 10:55:22;;;;;;;;;;;26.90;22.30;;;;;;4919390;29;19927;-68
2022/03/15 10:57:51;;;;;;;;;;;26.90;22.30;;;;;;4919531;29;20393;-67
2022/03/15 11:00:19;;;;;;;;;;;26.80;22.20;;;;;;4918463;29;19966;-66
2022/03/15 11:02:48;;;;;;;;;;;26.80;22.20;;;;;;4919910;29;19962;-67
2022/03/15 11:05:29;;;;;;;;;;;26.80;22.20;;;;;;4919637;29;19927;-67
2022/03/15 11:07:56;;;;;;;;;;;26.90;22.30;;;;;;4919642;29;19934;-68
2022/03/15 11:10:24;;;;;;;;;;;26.80;22.20;;;;;;4919208;29;19974;-67
2022/03/15 11:13:02;;;;;;;;;;;26.90;22.30;;;;;;4919891;29;19931;-67
2022/03/15 11:15:36;;;;;;;;;;;26.90;22.30;;;;;;4919266;29;20418;-67
2022/03/15 11:18:04;;;;;;;;;;;26.90;22.30;;;;;;4919140;29;19935;-67
2022/03/15 11:20:34;;;;;;;;;;;26.90;22.30;;;;;;4919065;29;20009;-67
2022/03/15 11:23:03;;;;;;;;;;;26.90;22.30;;;;;;4918471;29;19927;-68
2022/03/15 11:25:33;;;;;;;;;;;26.80;22.20;;;;;;4917839;29;19985;-67
2022/03/15 11:28:00;;;;;;;;;;;26.90;22.30;;;;;;4919332;29;20029;-67
2022/03/15 11:30:27;;;;;;;;;;;26.80;22.30;;;;;;4919139;29;19927;-67
2022/03/15 11:32:55;;;;;;;;;;;26.80;22.30;;;;;;4918962;29;20388;-67
2022/03/15 11:35:23;;;;;;;;;;;26.80;22.30;;;;;;4918876;29;19996;-67
2022/03/15 11:37:52;;;;;;;;;;;26.80;22.30;;;;;;4919377;29;19954;-67
2022/03/15 11:40:20;;;;;;;;;;;26.80;22.30;;;;;;4919138;29;19982;-69
2022/03/15 11:42:55;;;;;;;;;;;26.80;22.30;;;;;;4919246;29;19934;-67
2022/03/15 11:45:32;;;;;;;;;;;26.80;22.30;;;;;;4918980;29;19966;-69
2022/03/15 11:48:11;;;;;;;;;;;26.90;22.30;;;;;;4917673;29;20292;-69
2022/03/15 11:50:58;;;;;;;;;;;26.90;22.40;;;;;;4933218;29;19928;-69
2022/03/15 11:53:38;;;;;;;;;;;26.90;22.40;;;;;;4917614;29;20373;-69
2022/03/15 11:56:21;;;;;;;;;;;26.90;22.30;;;;;;4918490;29;20013;-70
2022/03/15 11:58:55;;;;;;;;;;;26.90;22.30;;;;;;4918391;29;20018;-69
2022/03/15 12:01:22;;;;;;;;;;;26.90;22.30;;;;;;4918671;29;20432;-70
2022/03/15 12:03:52;;;;;;;;;;;27.00;22.30;;;;;;4918341;29;20019;-70
2022/03/15 12:06:23;;;;;;;;;;;27.00;22.30;;;;;;4918310;29;19927;-69
2022/03/15 12:08:51;;;;;;;;;;;27.00;22.30;;;;;;4918424;29;19927;-70
2022/03/15 12:11:26;;;;;;;;;;;27.00;22.30;;;;;;4917663;29;20356;-69
2022/03/15 12:14:01;;;;;;;;;;;27.00;22.30;;;;;;4918052;29;19931;-69
2022/03/15 12:16:33;;;;;;;;;;;27.00;22.30;;;;;;4918075;29;19974;-67
2022/03/15 12:19:05;;;;;;;;;;;27.00;22.30;;;;;;4918430;29;19957;-67
2022/03/15 12:21:33;;;;;;;;;;;27.00;22.30;;;;;;4916882;29;19931;-69
2022/03/15 12:24:01;;;;;;;;;;;27.00;22.20;;;;;;4918306;29;20038;-69
2022/03/15 12:26:29;;;;;;;;;;;27.00;22.20;;;;;;4918299;29;19991;-69
2022/03/15 12:29:14;;;;;;;;;;;27.00;22.20;;;;;;4918017;29;19967;-69
2022/03/15 12:31:42;;;;;;;;;;;27.00;22.20;;;;;;4918172;29;19959;-69
2022/03/15 12:34:11;;;;;;;;;;;27.00;22.20;;;;;;4917076;29;19927;-70
2022/03/15 12:36:39;;;;;;;;;;;27.00;22.20;;;;;;4917996;29;19927;-69
2022/03/15 12:39:10;;;;;;;;;;;27.00;22.20;;;;;;4917706;29;19977;-69
2022/03/15 12:42:11;;;;;;;;;;;27.10;22.20;;;;;;4917967;29;20312;-69
2022/03/15 12:44:48;;;;;;;;;;;27.10;22.20;;;;;;4917544;29;19938;-69
2022/03/15 12:47:18;;;;;;;;;;;27.10;22.30;;;;;;4901220;29;20381;-69
2022/03/15 12:50:05;;;;;;;;;;;27.10;22.20;;;;;;4917932;29;19927;-69
2022/03/15 12:52:40;;;;;;;;;;;27.10;22.20;;;;;;4917497;29;19979;-69
2022/03/15 12:55:16;;;;;;;;;;;27.10;22.30;;;;;;4917356;29;20021;-69
2022/03/15 12:57:44;;;;;;;;;;;27.10;22.30;;;;;;4917637;29;20377;-67
2022/03/15 13:00:14;;;;;;;;;;;27.10;22.30;;;;;;4917457;29;20017;-69
2022/03/15 13:02:41;;;;;;;;;;;27.10;22.30;;;;;;4917366;29;19979;-69
2022/03/15 13:05:15;;;;;;;;;;;27.10;22.30;;;;;;4916316;29;19928;-69
2022/03/15 13:07:42;;;;;;;;;;;27.10;22.40;;;;;;4917592;29;20277;-69
2022/03/15 13:10:12;;;;;;;;;;;27.10;22.40;;;;;;4917450;29;20014;-69
2022/03/15 13:12:41;;;;;;;;;;;27.00;22.50;;;;;;4917213;29;19982;-68
2022/03/15 13:15:08;;;;;;;;;;;27.00;22.40;;;;;;4917072;29;20014;-69
2022/03/15 13:17:46;;;;;;;;;;;26.90;22.50;;;;;;4917019;29;19931;-67
2022/03/15 13:20:22;;;;;;;;;;;26.90;22.60;;;;;;4916937;29;19933;-68
2022/03/15 13:22:56;;;;;;;;;;;26.80;22.60;;;;;;4917343;29;20009;-68
2022/03/15 13:25:34;;;;;;;;;;;26.80;22.70;;;;;;4917159;29;20019;-69
2022/03/15 13:28:06;;;;;;;;;;;26.70;22.70;;;;;;4916887;29;19927;-69
2022/03/15 13:30:39;;;;;;;;;;;26.70;22.70;;;;;;4915643;29;19927;-68
2022/03/15 13:33:07;;;;;;;;;;;26.60;22.70;;;;;;4917101;29;19935;-66
2022/03/15 13:35:35;;;;;;;;;;;26.60;22.80;;;;;;4917060;29;20041;-68
2022/03/15 13:38:13;;;;;;;;;;;26.50;22.80;;;;;;4916765;29;20075;-68
2022/03/15 13:40:42;;;;;;;;;;;26.50;22.80;;;;;;4915695;29;20022;-68
2022/03/15 13:43:13;;;;;;;;;;;26.50;22.90;;;;;;4916708;29;20462;-68
2022/03/15 13:45:43;;;;;;;;;;;26.40;22.90;;;;;;4916723;29;20014;-68
2022/03/15 13:48:10;;;;;;;;;;;26.40;22.90;;;;;;4916545;29;19954;-65
2022/03/15 13:50:38;;;;;;;;;;;26.40;23.00;;;;;;4916776;29;19933;-66
2022/03/15 13:53:17;;;;;;;;;;;26.30;23.00;;;;;;4916855;29;19977;-67
2022/03/15 13:55:45;;;;;;;;;;;26.30;23.10;;;;;;4916698;29;19966;-67
2022/03/15 13:58:24;;;;;;;;;;;26.30;23.10;;;;;;4916722;29;20349;-67
2022/03/15 14:01:03;;;;;;;;;;;26.20;23.10;;;;;;4916715;29;20086;-66
2022/03/15 14:03:33;;;;;;;;;;;26.20;23.10;;;;;;4916369;29;19931;-67
2022/03/15 14:06:03;;;;;;;;;;;26.20;23.10;;;;;;4915193;29;19942;-67
2022/03/15 14:08:47;;;;;;;;;;;26.20;23.20;;;;;;4916361;29;20407;-67
2022/03/15 14:11:16;;;;;;;;;;;26.10;23.10;;;;;;4916344;29;19977;-66
2022/03/15 14:13:55;;;;;;;;;;;26.10;23.20;;;;;;4916593;29;20014;-66
2022/03/15 14:16:34;;;;;;;;;;;26.10;23.20;;;;;;4916516;29;20014;-66
2022/03/15 14:19:02;;;;;;;;;;;26.00;23.20;;;;;;4916529;29;19958;-68
2022/03/15 14:21:30;;;;;;;;;;;26.00;23.20;;;;;;4916499;29;20407;-67
2022/03/15 14:23:58;;;;;;;;;;;26.00;23.30;;;;;;4916470;29;20004;-67
2022/03/15 14:26:28;;;;;;;;;;;26.00;23.30;;;;;;4916263;29;20377;-67
2022/03/15 14:29:00;;;;;;;;;;;26.00;23.30;;;;;;4916380;29;19927;-67
2022/03/15 14:31:28;;;;;;;;;;;26.00;23.40;;;;;;4916027;29;19927;-66